createdAt,value
2022-12-25T00:08:18.308Z,1.77
2022-12-25T00:13:20.189Z,1.97
2022-12-25T00:18:24.064Z,2.30
2022-12-25T00:23:26.488Z,2.37
2022-12-25T00:28:32.875Z,2.83
2022-12-25T00:33:39.922Z,2.03
2022-12-25T00:56:42.252Z,2.60
2022-12-25T01:01:59.736Z,2.90
2022-12-25T01:07:50.237Z,4.20
2022-12-25T01:18:51.369Z,3.10
2022-12-25T01:23:54.055Z,4.30
2022-12-25T01:28:57.215Z,3.80
2022-12-25T01:33:58.981Z,4.47
2022-12-25T01:39:00.896Z,5.10
2022-12-25T01:44:07.233Z,4.20
2022-12-25T01:49:12.728Z,5.10
2022-12-25T01:54:18.001Z,6.03
2022-12-25T01:59:24.313Z,4.77
2022-12-25T02:04:30.172Z,4.97
2022-12-25T02:09:32.587Z,4.50
2022-12-25T02:14:37.510Z,3.93
2022-12-25T02:20:12.062Z,5.10
2022-12-25T02:25:33.154Z,4.83
2022-12-25T02:31:05.047Z,5.77
2022-12-25T02:36:16.200Z,4.90
2022-12-25T02:41:27.885Z,4.83
2022-12-25T02:46:33.634Z,5.00
2022-12-25T02:51:40.328Z,5.87
2022-12-25T02:56:46.903Z,5.77
2022-12-25T03:01:51.147Z,5.53
2022-12-25T03:07:02.667Z,6.43
2022-12-25T03:12:13.507Z,6.40
2022-12-25T03:17:17.140Z,7.57
2022-12-25T03:22:24.952Z,6.30
2022-12-25T03:27:29.741Z,6.37
2022-12-25T03:32:40.223Z,7.03
2022-12-25T03:37:50.679Z,6.90
2022-12-25T03:42:58.950Z,6.43
2022-12-25T03:48:05.308Z,6.90
2022-12-25T03:53:12.711Z,6.77
2022-12-25T03:58:19.219Z,7.07
2022-12-25T04:03:22.593Z,5.70
2022-12-25T04:08:24.464Z,6.30
2022-12-25T04:13:26.317Z,6.47
2022-12-25T04:18:29.585Z,6.20
2022-12-25T04:28:51.321Z,5.53
2022-12-25T04:33:58.829Z,5.67
2022-12-25T04:39:00.498Z,5.70
2022-12-25T04:44:02.375Z,4.63
2022-12-25T04:49:05.785Z,5.07
2022-12-25T04:54:07.493Z,5.80
2022-12-25T04:59:09.330Z,4.90
2022-12-25T05:04:12.737Z,5.27
2022-12-25T05:09:14.388Z,5.30
2022-12-25T05:14:16.234Z,5.83
2022-12-25T05:19:19.532Z,5.37
2022-12-25T05:24:26.017Z,5.80
2022-12-25T05:29:27.981Z,5.87
2022-12-25T05:34:31.410Z,5.33
2022-12-25T05:45:57.184Z,4.67
2022-12-25T05:51:34.547Z,5.33
2022-12-25T05:56:55.213Z,4.30
2022-12-25T06:02:29.563Z,4.43
2022-12-25T06:07:55.793Z,3.87
2022-12-25T06:13:28.656Z,3.90
2022-12-25T06:24:21.495Z,3.20
2022-12-25T07:04:37.942Z,3.60
2022-12-25T07:10:23.739Z,3.30
2022-12-25T07:22:09.137Z,6.17
2022-12-25T07:45:17.569Z,5.60
2022-12-25T07:50:44.695Z,7.00
2022-12-25T07:55:47.776Z,6.67
2022-12-25T08:00:49.449Z,6.57
2022-12-25T08:05:51.075Z,6.23
2022-12-25T08:10:54.361Z,6.87
2022-12-25T08:15:57.226Z,6.93
2022-12-25T08:21:03.712Z,8.27
2022-12-25T08:26:08.520Z,6.67
2022-12-25T08:31:14.272Z,6.93
2022-12-25T08:36:17.180Z,8.17
2022-12-25T08:41:23.170Z,7.63
2022-12-25T08:46:25.469Z,7.53
2022-12-25T08:51:27.304Z,7.00
2022-12-25T08:56:30.778Z,7.80
2022-12-25T09:01:32.408Z,6.33
2022-12-25T09:06:34.261Z,6.10
2022-12-25T09:11:37.315Z,6.13
2022-12-25T09:16:39.074Z,4.63
2022-12-25T09:21:41.080Z,3.90
2022-12-25T09:26:44.692Z,3.77
2022-12-25T09:31:46.509Z,3.30
2022-12-25T09:36:48.480Z,4.23
2022-12-25T09:41:56.277Z,4.40
2022-12-25T09:47:01.461Z,4.83
2022-12-25T09:52:08.767Z,5.53
2022-12-25T09:57:14.913Z,4.60
2022-12-25T10:02:52.605Z,3.87
2022-12-25T10:08:02.464Z,3.87
2022-12-25T10:13:16.681Z,4.17
2022-12-25T10:18:47.266Z,5.63
2022-12-25T10:23:55.519Z,4.13
2022-12-25T10:29:04.341Z,3.90
2022-12-25T10:34:07.095Z,3.30
2022-12-25T10:39:12.547Z,3.00
2022-12-25T10:44:17.783Z,2.67
2022-12-25T10:49:22.152Z,3.70
2022-12-25T10:54:26.366Z,3.67
2022-12-25T10:59:34.436Z,3.70
2022-12-25T11:04:36.534Z,3.43
2022-12-25T11:09:38.194Z,3.57
2022-12-25T11:14:53.586Z,3.17
2022-12-25T11:19:57.221Z,3.00
2022-12-25T11:25:11.866Z,3.23
2022-12-25T11:30:19.380Z,2.87
2022-12-25T11:35:24.269Z,2.90
2022-12-25T11:40:28.934Z,2.37
2022-12-25T11:45:37.211Z,3.00
2022-12-25T11:50:43.466Z,2.40
2022-12-25T11:55:49.356Z,1.90
2022-12-25T12:00:55.187Z,2.30
2022-12-25T12:05:59.805Z,2.43
2022-12-25T12:11:12.639Z,2.27
2022-12-25T12:16:15.865Z,1.90
2022-12-25T12:21:22.425Z,2.33
2022-12-25T12:26:27.536Z,2.07
2022-12-25T12:31:39.271Z,2.67
2022-12-25T12:36:41.252Z,2.70
2022-12-25T12:41:48.445Z,2.70
2022-12-25T12:46:53.537Z,2.80
2022-12-25T12:52:06.990Z,2.43
2022-12-25T12:57:23.177Z,3.20
2022-12-25T13:02:58.241Z,3.37
2022-12-25T13:08:07.877Z,4.00
2022-12-25T13:13:16.962Z,3.60
2022-12-25T13:18:20.938Z,4.07
2022-12-25T13:23:25.709Z,3.87
2022-12-25T13:28:28.652Z,3.67
2022-12-25T13:33:32.099Z,8.50
2022-12-25T13:38:34.453Z,6.33
2022-12-25T13:43:36.517Z,5.00
2022-12-25T13:48:39.852Z,4.30
2022-12-25T13:53:42.013Z,4.10
2022-12-25T13:58:47.499Z,4.37
2022-12-25T14:03:50.739Z,4.87
2022-12-25T14:08:54.603Z,4.20
2022-12-25T14:14:00.117Z,4.60
2022-12-25T14:19:03.547Z,4.07
2022-12-25T14:24:13.564Z,4.27
2022-12-25T14:29:19.140Z,4.20
2022-12-25T14:34:27.918Z,4.17
2022-12-25T14:39:35.462Z,4.50
2022-12-25T14:44:38.935Z,4.83
2022-12-25T14:49:42.991Z,4.80
2022-12-25T14:54:47.245Z,4.43
2022-12-25T14:59:56.573Z,5.17
2022-12-25T15:04:59.685Z,4.30
2022-12-25T15:15:23.590Z,4.20
2022-12-25T15:20:30.831Z,4.17
2022-12-25T15:25:32.482Z,4.03
2022-12-25T15:30:36.525Z,4.33
2022-12-25T15:35:39.511Z,4.70
2022-12-25T15:40:42.491Z,3.90
2022-12-25T15:45:44.304Z,4.43
2022-12-25T15:50:47.492Z,3.60
2022-12-25T15:55:49.495Z,4.13
2022-12-25T16:00:51.186Z,3.20
2022-12-25T16:05:54.427Z,3.57
2022-12-25T16:10:56.274Z,3.13
2022-12-25T16:15:57.954Z,4.00
2022-12-25T16:21:01.329Z,3.63
2022-12-25T16:26:02.983Z,3.40
2022-12-25T16:31:04.887Z,3.00
2022-12-25T16:36:08.852Z,3.80
2022-12-25T16:41:10.488Z,3.37
2022-12-25T16:46:13.905Z,3.97
2022-12-25T16:51:19.178Z,3.97
2022-12-25T16:56:21.227Z,3.50
2022-12-25T17:01:24.277Z,3.63
2022-12-25T17:06:28.278Z,3.13
2022-12-25T17:11:30.465Z,3.83
2022-12-25T17:16:34.267Z,4.00
2022-12-25T17:21:37.571Z,4.03
2022-12-25T17:26:39.651Z,4.40
2022-12-25T17:31:41.492Z,3.53
2022-12-25T17:36:44.588Z,3.40
2022-12-25T17:41:46.300Z,3.93
2022-12-25T17:46:48.820Z,3.63
2022-12-25T17:51:53.956Z,3.63
2022-12-25T17:56:55.684Z,3.40
2022-12-25T18:01:57.627Z,3.43
2022-12-25T18:07:00.939Z,3.20
2022-12-25T18:12:02.563Z,3.13
2022-12-25T18:17:04.172Z,3.30
2022-12-25T18:22:08.733Z,3.00
2022-12-25T18:27:19.274Z,3.17
2022-12-25T18:32:27.763Z,3.40
2022-12-25T18:37:39.423Z,3.40
2022-12-25T18:42:42.021Z,3.40
2022-12-25T18:47:43.815Z,3.50
2022-12-25T18:52:51.663Z,3.17
2022-12-25T18:57:54.097Z,3.40
2022-12-25T19:02:56.648Z,2.97
2022-12-25T19:08:00.391Z,3.40
2022-12-25T19:13:02.439Z,3.13
2022-12-25T19:18:04.281Z,3.10
2022-12-25T19:23:07.826Z,3.37
2022-12-25T19:28:09.694Z,4.20
2022-12-25T19:33:17.472Z,3.40
2022-12-25T19:38:21.194Z,3.77
2022-12-25T19:43:23.004Z,3.20
2022-12-25T19:48:25.173Z,3.40
2022-12-25T19:53:29.809Z,3.90
2022-12-25T19:58:31.494Z,3.90
2022-12-25T20:03:33.612Z,3.70
2022-12-25T20:08:36.900Z,3.10
2022-12-25T20:13:38.521Z,3.63
2022-12-25T20:18:40.447Z,3.50
2022-12-25T20:23:44.786Z,3.80
2022-12-25T20:28:46.515Z,3.37
2022-12-25T20:33:48.313Z,4.20
2022-12-25T20:38:51.421Z,3.47
2022-12-25T20:43:53.271Z,3.20
2022-12-25T20:48:55.340Z,3.33
2022-12-25T20:53:58.436Z,3.97
2022-12-25T20:59:01.005Z,3.20
2022-12-25T21:04:02.835Z,3.43
2022-12-25T21:09:06.309Z,3.83
2022-12-25T21:14:08.229Z,3.83
2022-12-25T21:19:09.979Z,4.03
2022-12-25T21:24:13.052Z,4.37
2022-12-25T21:29:14.884Z,4.07
2022-12-25T21:34:16.607Z,4.57
2022-12-25T21:39:19.635Z,4.53
2022-12-25T21:44:21.254Z,4.60
2022-12-25T21:49:23.117Z,4.60
2022-12-25T21:54:26.549Z,4.30
2022-12-25T21:59:28.311Z,4.17
2022-12-25T22:04:29.929Z,4.50
2022-12-25T22:09:33.230Z,4.40
2022-12-25T22:14:52.804Z,3.77
2022-12-25T22:19:55.615Z,4.13
2022-12-25T22:25:00.582Z,4.10
2022-12-25T22:30:02.645Z,4.10
2022-12-25T22:35:05.046Z,3.70
2022-12-25T22:40:10.990Z,4.20
2022-12-25T22:45:13.002Z,3.90
2022-12-25T22:50:16.284Z,4.23
2022-12-25T22:55:19.490Z,3.63
2022-12-25T23:00:21.530Z,3.30
2022-12-25T23:05:23.142Z,2.77
2022-12-25T23:10:28.249Z,3.27
2022-12-25T23:15:29.879Z,3.10
2022-12-25T23:20:32.681Z,3.03
2022-12-25T23:25:35.766Z,3.10
2022-12-25T23:30:37.681Z,2.97
2022-12-25T23:35:39.623Z,2.93
2022-12-25T23:40:42.765Z,3.23
2022-12-25T23:45:44.570Z,2.70
2022-12-25T23:50:46.429Z,2.97
2022-12-25T23:55:55.397Z,2.40
